Time;durP1;ratioP1;P1;durP2;ratioP2;P2;SDS_P1;SDS_P2;PMS_P1;PMS_P2;Temp;Humidity;BMP_temperature;BMP_pressure;BME280_temperature;BME280_humidity;BME280_pressure;Samples;Min_cycle;Max_cycle;Signal;HPM_P1;HPM_P2
2023/03/29 00:02:18;;;;;;;4.47;1.45;;;5.60;99.90;;;4.91;100.00;97875.31;5028582;28;20045;-73
2023/03/29 00:04:46;;;;;;;5.63;1.90;;;5.60;99.90;;;4.97;100.00;97879.50;5025814;28;20045;-72
2023/03/29 00:07:13;;;;;;;4.72;1.63;;;5.60;99.90;;;4.98;100.00;97883.78;5030712;28;20052;-71
2023/03/29 00:09:41;;;;;;;3.78;1.83;;;5.50;99.90;;;4.82;100.00;97878.88;5026859;28;20136;-72
2023/03/29 00:12:09;;;;;;;5.13;1.80;;;5.50;99.90;;;4.79;100.00;97878.09;5022907;28;20416;-72
2023/03/29 00:14:37;;;;;;;3.10;1.92;;;5.50;99.90;;;4.82;100.00;97875.47;5024975;28;20068;-72
2023/03/29 00:17:05;;;;;;;4.72;2.25;;;5.50;99.90;;;4.72;100.00;97881.59;5022753;28;20096;-71
2023/03/29 00:19:34;;;;;;;5.75;2.42;;;5.50;99.90;;;4.70;100.00;97876.50;5024581;28;20059;-72
2023/03/29 00:22:05;;;;;;;4.13;1.98;;;5.50;99.90;;;4.56;100.00;97858.69;5023990;28;20503;-71
2023/03/29 00:24:32;;;;;;;5.25;1.80;;;5.40;99.90;;;4.60;100.00;97865.47;5025183;28;20068;-72
2023/03/29 00:26:59;;;;;;;4.25;1.98;;;5.40;99.90;;;4.66;100.00;97856.00;5026251;28;20037;-71
2023/03/29 00:29:27;;;;;;;3.88;2.03;;;5.40;99.90;;;4.61;100.00;97856.91;5024092;28;20076;-72
2023/03/29 00:31:57;;;;;;;4.18;1.70;;;5.30;99.90;;;4.63;100.00;97849.19;5026199;28;20049;-71
2023/03/29 00:34:29;;;;;;;3.95;1.67;;;5.30;99.90;;;4.74;100.00;97847.25;5022371;28;20419;-71
2023/03/29 00:36:57;;;;;;;3.75;1.40;;;5.30;99.90;;;4.70;100.00;97844.75;5022528;28;20598;-71
2023/03/29 00:39:26;;;;;;;5.85;1.40;;;5.20;99.90;;;4.67;100.00;97839.69;5024003;28;20051;-71
2023/03/29 00:41:54;;;;;;;3.78;1.70;;;5.20;99.90;;;4.67;100.00;97845.66;5005462;28;20041;-71
2023/03/29 00:45:02;;;;;;;3.78;1.60;;;5.20;99.90;;;4.63;100.00;97841.47;5026499;28;20041;-71
2023/03/29 00:47:41;;;;;;;5.03;1.50;;;5.20;99.90;;;4.48;100.00;97834.81;5026090;28;20064;-71
2023/03/29 00:50:24;;;;;;;3.67;1.35;;;5.20;99.90;;;4.41;100.00;97828.06;5035298;28;20068;-71
2023/03/29 00:53:08;;;;;;;;;;;5.20;99.90;;;4.48;100.00;97834.81;5027426;28;20093;-71
2023/03/29 00:55:47;;;;;;;4.18;1.45;;;5.20;99.90;;;4.46;100.00;97821.13;5038652;28;20377;-72
2023/03/29 00:58:22;;;;;;;4.93;2.10;;;5.20;99.90;;;4.47;100.00;97825.41;5022634;28;20054;-71
2023/03/29 01:01:00;;;;;;;3.63;1.42;;;5.20;99.90;;;4.47;100.00;97825.41;5024505;28;20048;-72
2023/03/29 01:03:36;;;;;;;2.20;1.35;;;5.20;99.90;;;4.60;100.00;97823.50;5024322;28;20522;-71
2023/03/29 01:06:07;;;;;;;5.82;1.75;;;5.20;99.90;;;4.46;100.00;97812.56;5037375;28;20041;-70
2023/03/29 01:08:46;;;;;;;5.78;1.65;;;5.20;99.90;;;4.48;100.00;97801.38;5034942;28;20046;-71
2023/03/29 01:11:22;;;;;;;7.13;1.70;;;5.10;99.90;;;4.48;100.00;97811.66;5022621;28;20054;-71
2023/03/29 01:14:17;;;;;;;3.92;1.52;;;5.20;99.90;;;4.63;100.00;97810.59;5026561;28;20072;-72
2023/03/29 01:16:45;;;;;;;4.72;1.50;;;5.20;99.90;;;4.64;100.00;97801.16;5024099;28;20505;-71
2023/03/29 01:19:18;;;;;;;5.55;1.40;;;5.20;99.90;;;4.68;100.00;97803.66;5019114;28;20053;-71
2023/03/29 01:22:41;;;;;;;2.63;1.08;;;5.20;99.90;;;4.75;100.00;97799.28;5019733;28;20138;-72
2023/03/29 01:25:52;;;;;;;4.18;1.20;;;5.30;99.90;;;4.68;100.00;97802.81;5019526;28;20049;-71
2023/03/29 01:28:36;;;;;;;2.80;1.35;;;5.40;99.90;;;4.72;100.00;97791.59;5026005;28;20128;-71
2023/03/29 01:31:12;;;;;;;4.13;1.50;;;5.40;99.90;;;4.65;100.00;97787.41;5039331;28;20050;-71
2023/03/29 01:33:48;;;;;;;3.95;1.42;;;5.30;99.90;;;4.50;100.00;97783.38;5024165;28;20507;-72
2023/03/29 01:36:26;;;;;;;4.53;1.70;;;5.30;99.90;;;4.50;100.00;97780.81;5025040;28;20128;-71
2023/03/29 01:39:03;;;;;;;3.63;1.30;;;5.30;99.90;;;4.44;100.00;97784.31;5038870;28;20046;-71
2023/03/29 01:42:01;;;;;;;4.82;1.70;;;5.20;99.90;;;4.36;100.00;97781.00;5038348;28;20056;-71
2023/03/29 01:44:51;;;;;;;3.85;1.70;;;5.10;99.90;;;4.16;100.00;97776.16;5023374;28;20149;-71
2023/03/29 01:47:55;;;;;;;4.10;1.60;;;5.00;99.90;;;4.06;100.00;97777.13;5027143;28;20041;-74
2023/03/29 01:50:50;;;;;;;3.63;1.50;;;5.00;99.90;;;4.18;100.00;97780.41;5022844;28;20061;-73
2023/03/29 01:53:42;;;;;;;3.97;1.35;;;4.90;99.90;;;4.12;100.00;97779.63;5021925;28;20056;-73
2023/03/29 01:56:23;;;;;;;4.50;1.48;;;4.90;99.90;;;4.08;100.00;97778.84;5025011;28;20049;-72
2023/03/29 01:59:03;;;;;;;7.75;1.77;;;4.80;99.90;;;3.91;100.00;97773.91;5026382;28;20046;-73
2023/03/29 02:01:37;;;;;;;3.92;1.40;;;4.80;99.90;;;3.90;100.00;97771.34;5025626;28;20053;-70
2023/03/29 02:04:11;;;;;;;4.10;1.50;;;4.80;99.90;;;3.90;100.00;97774.78;5021964;28;20049;-71
2023/03/29 02:06:40;;;;;;;3.22;1.60;;;4.80;99.90;;;3.90;100.00;97771.34;5024857;28;20424;-73
2023/03/29 02:09:09;;;;;;;2.80;1.65;;;4.70;99.90;;;3.92;100.00;97760.22;5021812;28;20107;-71
2023/03/29 02:11:36;;;;;;;4.95;1.65;;;4.70;99.90;;;3.90;100.00;97764.50;5021684;28;20058;-73
2023/03/29 02:14:04;;;;;;;7.13;1.60;;;4.70;99.90;;;3.90;100.00;97756.81;5024135;28;20099;-72
2023/03/29 02:16:39;;;;;;;3.45;1.27;;;4.70;99.90;;;3.86;100.00;97757.72;5022437;28;20571;-72
2023/03/29 02:19:08;;;;;;;5.40;1.67;;;4.70;99.90;;;3.71;100.00;97761.31;5022096;28;20046;-73
2023/03/29 02:22:07;;;;;;;3.63;1.80;;;4.70;99.90;;;3.78;100.00;97757.78;5023089;28;20058;-73
2023/03/29 02:24:36;;;;;;;4.00;1.58;;;4.70;99.90;;;3.78;100.00;97759.50;5016403;28;20152;-72
2023/03/29 02:27:04;;;;;;;4.60;1.60;;;4.70;99.90;;;3.81;100.00;97763.75;5004233;28;20053;-73
2023/03/29 02:29:31;;;;;;;3.90;1.58;;;4.70;99.90;;;3.70;100.00;97766.47;5023754;28;20081;-72
2023/03/29 02:32:23;;;;;;;12.50;2.88;;;4.70;99.90;;;3.62;100.00;97769.13;5023879;28;20056;-73
2023/03/29 02:35:05;;;;;;;3.42;1.70;;;4.70;99.90;;;3.46;100.00;97772.75;5024550;28;20511;-73
2023/03/29 02:37:35;;;;;;;4.03;1.85;;;4.60;99.90;;;3.41;100.00;97770.22;5023934;28;20060;-72
2023/03/29 02:40:06;;;;;;;4.97;2.00;;;4.60;99.90;;;3.30;100.00;97775.47;5022338;28;20049;-73
2023/03/29 02:42:34;;;;;;;6.00;1.90;;;4.50;99.90;;;3.06;100.00;97761.19;5023105;28;20052;-72
2023/03/29 02:45:03;;;;;;;2.83;1.42;;;4.40;99.90;;;3.02;100.00;97768.91;5020494;28;20389;-72
2023/03/29 02:47:37;;;;;;;5.00;2.22;;;4.30;99.90;;;2.96;100.00;97768.97;5023330;28;20085;-71
2023/03/29 02:50:06;;;;;;;6.10;2.70;;;4.20;99.90;;;2.98;100.00;97775.78;5004135;28;20083;-72
2023/03/29 02:52:39;;;;;;;5.70;2.47;;;4.10;99.90;;;2.95;100.00;97777.53;5022632;28;20166;-72
2023/03/29 02:55:13;;;;;;;4.43;2.10;;;4.10;99.90;;;2.98;100.00;97780.91;5039401;28;20600;-72
2023/03/29 02:57:42;;;;;;;5.50;2.28;;;4.00;99.90;;;2.99;100.00;97777.50;5018111;28;20045;-72
2023/03/29 03:00:13;;;;;;;4.10;2.50;;;4.00;99.90;;;2.76;100.00;97770.00;5021042;28;20053;-72
2023/03/29 03:02:41;;;;;;;5.38;2.53;;;4.00;99.90;;;2.73;100.00;97770.88;5018524;28;20042;-71
2023/03/29 03:05:09;;;;;;;4.43;2.33;;;3.90;99.90;;;2.63;100.00;97768.41;5019143;28;20095;-71
2023/03/29 03:07:36;;;;;;;6.80;3.35;;;3.80;99.90;;;2.50;100.00;97773.59;5017605;28;20050;-72
2023/03/29 03:10:03;;;;;;;7.28;3.97;;;3.70;99.90;;;2.49;100.00;97769.34;5018336;28;20045;-71
2023/03/29 03:12:30;;;;;;;10.35;4.13;;;3.70;99.90;;;2.48;100.00;97780.44;5019580;28;20050;-71
2023/03/29 03:14:57;;;;;;;6.18;3.53;;;3.60;99.90;;;2.47;100.00;97788.16;5019191;28;20407;-72
2023/03/29 03:17:25;;;;;;;6.95;3.35;;;3.60;99.90;;;2.49;100.00;97794.97;5036931;28;20084;-71
2023/03/29 03:19:52;;;;;;;6.68;3.45;;;3.50;99.90;;;2.39;100.00;97787.34;5018543;28;20115;-72
2023/03/29 03:22:19;;;;;;;7.47;2.60;;;3.40;99.90;;;2.37;100.00;97789.06;5019360;28;20044;-71
2023/03/29 03:24:46;;;;;;;8.85;4.40;;;3.50;99.90;;;2.38;100.00;97788.22;5018220;28;20049;-72
2023/03/29 03:27:13;;;;;;;15.88;5.97;;;3.40;99.90;;;2.38;100.00;97786.50;5018600;28;20420;-71
2023/03/29 03:29:40;;;;;;;12.68;6.22;;;3.30;99.90;;;2.32;100.00;97785.69;5017151;28;20496;-71
2023/03/29 03:32:07;;;;;;;12.10;5.28;;;3.30;99.90;;;2.38;100.00;97785.66;5018424;28;21984;-71
2023/03/29 03:34:34;;;;;;;5.78;2.90;;;3.30;99.90;;;2.80;100.00;97781.91;5019552;28;20054;-71
2023/03/29 03:37:01;;;;;;;5.18;2.28;;;3.50;99.90;;;3.03;100.00;97770.59;5018933;28;20053;-71
2023/03/29 03:39:29;;;;;;;7.57;2.60;;;3.70;99.90;;;3.16;100.00;97768.78;5020963;28;20049;-71
2023/03/29 03:41:56;;;;;;;7.85;2.60;;;3.90;99.90;;;3.29;100.00;97763.50;5019768;28;20176;-72
2023/03/29 03:44:23;;;;;;;7.75;2.88;;;4.00;99.90;;;3.27;100.00;97759.28;5021643;28;20050;-71
2023/03/29 03:46:50;;;;;;;7.40;2.85;;;4.10;99.90;;;3.36;100.00;97756.59;5021686;28;20050;-72
2023/03/29 03:49:18;;;;;;;5.63;2.95;;;4.20;99.90;;;3.23;100.00;97753.31;5020421;28;20062;-72
2023/03/29 03:51:45;;;;;;;5.80;2.72;;;4.20;99.90;;;3.29;100.00;97755.81;5023228;28;20466;-72
2023/03/29 03:54:12;;;;;;;4.10;2.42;;;4.20;99.90;;;3.32;100.00;97758.34;5021194;28;20052;-72
2023/03/29 03:56:39;;;;;;;10.07;4.53;;;4.20;99.90;;;3.11;100.00;97754.28;5023739;28;20057;-71
2023/03/29 03:59:06;;;;;;;21.80;10.40;;;4.20;99.90;;;3.06;100.00;97750.94;5020615;28;20149;-72
2023/03/29 04:01:34;;;;;;;16.65;7.72;;;4.10;99.90;;;2.97;100.00;97756.16;5017760;28;20053;-71
2023/03/29 04:04:04;;;;;;;9.18;4.03;;;4.00;99.90;;;3.05;100.00;97756.91;5017688;28;20141;-72
2023/03/29 04:06:31;;;;;;;8.00;3.97;;;4.00;99.90;;;3.14;100.00;97756.81;5018277;28;20420;-72
2023/03/29 04:08:58;;;;;;;8.90;4.20;;;4.00;99.90;;;3.17;100.00;97758.53;5018709;28;20041;-71
2023/03/29 04:11:26;;;;;;;9.93;5.63;;;4.10;99.90;;;3.24;100.00;97751.59;5040130;28;20153;-72
2023/03/29 04:13:53;;;;;;;10.38;5.25;;;4.10;99.90;;;3.26;100.00;97754.97;5023151;28;20041;-72
2023/03/29 04:16:20;;;;;;;11.88;6.28;;;4.00;99.90;;;3.18;100.00;97755.06;5020291;28;20045;-71
2023/03/29 04:18:47;;;;;;;8.63;5.22;;;4.00;99.90;;;3.11;100.00;97746.59;5021972;28;20045;-72
2023/03/29 04:21:14;;;;;;;9.35;4.85;;;4.00;99.90;;;3.05;100.00;97745.81;5022760;28;20041;-72
2023/03/29 04:23:45;;;;;;;11.40;5.05;;;3.90;99.90;;;2.97;100.00;97748.44;5021573;28;20107;-72
2023/03/29 04:26:13;;;;;;;9.02;4.90;;;3.80;99.90;;;3.01;100.00;97747.56;5023445;28;20053;-71
2023/03/29 04:28:41;;;;;;;12.40;7.07;;;3.80;99.90;;;2.95;100.00;97754.47;5022438;28;20053;-72
2023/03/29 04:31:13;;;;;;;12.82;6.95;;;3.80;99.90;;;2.85;100.00;97758.81;5021199;28;21212;-72
2023/03/29 04:33:40;;;;;;;16.80;9.40;;;3.80;99.90;;;2.63;100.00;97758.16;5019381;28;20138;-72
2023/03/29 04:36:08;;;;;;;12.63;7.25;;;3.70;99.90;;;2.69;100.00;97761.53;5022830;28;20335;-71
2023/03/29 04:38:35;;;;;;;11.70;5.78;;;3.70;99.90;;;2.71;100.00;97761.50;5020884;28;20497;-71
2023/03/29 04:41:03;;;;;;;17.27;9.52;;;3.60;99.90;;;2.38;100.00;97760.91;5020278;28;20523;-71
2023/03/29 04:43:30;;;;;;;10.68;5.72;;;3.50;99.90;;;2.30;100.00;97767.78;5021124;28;20045;-72
2023/03/29 04:45:57;;;;;;;10.40;5.10;;;3.20;99.90;;;2.31;100.00;97774.63;5019745;28;20069;-72
2023/03/29 04:48:25;;;;;;;13.18;5.80;;;3.00;99.90;;;2.30;100.00;97772.91;5005073;28;20111;-72
2023/03/29 04:50:53;;;;;;;8.25;4.80;;;3.00;99.90;;;2.32;100.00;97772.91;5028157;28;20060;-72
2023/03/29 04:53:21;;;;;;;11.52;4.88;;;3.00;99.90;;;2.24;100.00;97773.81;5020340;28;20064;-72
2023/03/29 04:55:48;;;;;;;15.68;6.93;;;3.00;99.90;;;2.19;100.00;97783.22;5022416;28;20058;-71
2023/03/29 04:58:15;;;;;;;13.48;7.45;;;3.00;99.90;;;2.03;100.00;97781.59;5023912;28;20152;-72
2023/03/29 05:00:45;;;;;;;8.48;4.95;;;2.90;99.90;;;2.08;100.00;97795.25;5033595;28;20829;-72
2023/03/29 05:03:13;;;;;;;12.75;5.72;;;2.80;99.90;;;2.02;100.00;97787.59;5023206;28;20377;-72
2023/03/29 05:05:40;;;;;;;8.68;5.57;;;2.80;99.90;;;2.05;100.00;97790.13;5022612;28;20458;-72
2023/03/29 05:08:25;;;;;;;11.02;5.60;;;2.70;99.90;;;1.99;100.00;97787.59;5022538;28;20045;-72
2023/03/29 05:10:52;;;;;;;9.60;6.00;;;2.80;99.90;;;2.03;100.00;97789.28;5025965;28;20128;-72
2023/03/29 05:13:19;;;;;;;9.57;5.75;;;2.70;99.90;;;1.91;100.00;97789.34;5004795;28;20056;-72
2023/03/29 05:15:46;;;;;;;12.57;5.85;;;2.70;99.90;;;1.94;100.00;97795.31;5025506;28;20049;-72
2023/03/29 05:18:13;;;;;;;19.17;10.90;;;2.60;99.90;;;1.78;100.00;97799.66;5024025;28;20129;-72
2023/03/29 05:20:41;;;;;;;16.55;8.95;;;2.50;99.90;;;1.77;100.00;97802.19;5020290;28;20105;-72
2023/03/29 05:23:08;;;;;;;17.20;7.03;;;2.40;99.90;;;1.85;100.00;97808.16;5024682;28;20402;-72
2023/03/29 05:25:35;;;;;;;10.52;5.25;;;2.40;99.90;;;1.86;100.00;97807.28;5024884;28;20065;-72
2023/03/29 05:28:03;;;;;;;18.20;8.65;;;2.40;99.90;;;1.82;100.00;97810.72;5020939;28;20046;-72
2023/03/29 05:30:30;;;;;;;12.85;7.32;;;2.30;99.90;;;1.81;100.00;97809.88;5035819;28;20057;-72
2023/03/29 05:32:59;;;;;;;16.67;8.18;;;2.30;99.90;;;1.90;100.00;97816.66;5020423;28;20057;-72
2023/03/29 05:35:27;;;;;;;14.82;9.02;;;2.40;99.90;;;1.93;100.00;97814.06;5022213;28;20045;-72
2023/03/29 05:37:55;;;;;;;16.25;9.60;;;2.40;99.90;;;2.07;100.00;97816.56;5023569;28;20041;-72
2023/03/29 05:40:24;;;;;;;18.00;11.13;;;2.50;99.90;;;2.07;100.00;97817.41;5023885;28;20050;-72
2023/03/29 05:42:52;;;;;;;20.15;11.95;;;2.50;99.90;;;2.14;100.00;97818.22;5026724;28;20160;-72
2023/03/29 05:45:19;;;;;;;22.05;13.20;;;2.60;99.90;;;2.19;100.00;97816.53;5025793;28;20059;-72
2023/03/29 05:47:46;;;;;;;21.05;13.38;;;2.70;99.90;;;2.29;100.00;97815.59;5015995;28;20045;-72
2023/03/29 05:50:14;;;;;;;21.75;13.32;;;2.70;99.90;;;2.38;100.00;97822.38;5022053;28;20104;-72
2023/03/29 05:52:41;;;;;;;22.30;12.40;;;2.80;99.90;;;2.38;100.00;97811.28;5026255;28;20100;-72
2023/03/29 05:55:09;;;;;;;18.02;11.48;;;2.90;99.90;;;2.65;100.00;97815.38;5023507;28;20050;-72
2023/03/29 05:57:37;;;;;;;18.02;10.43;;;3.00;99.90;;;2.70;100.00;97808.50;5022966;28;20057;-72
2023/03/29 06:00:20;;;;;;;18.77;10.40;;;3.10;99.90;;;2.87;100.00;97808.34;5034791;28;20045;-72
2023/03/29 06:02:47;;;;;;;;;;;3.20;99.90;;;3.01;100.00;97803.09;5023168;28;20633;-72
2023/03/29 06:05:15;;;;;;;13.77;8.00;;;3.30;99.90;;;3.16;100.00;97804.69;5037184;28;20371;-72
2023/03/29 06:07:42;;;;;;;14.07;8.48;;;3.50;99.90;;;3.24;100.00;97797.75;5023630;28;20452;-72
2023/03/29 06:10:09;;;;;;;13.32;7.85;;;3.70;99.90;;;3.47;100.00;97797.56;5027372;28;20046;-72
2023/03/29 06:12:37;;;;;;;13.88;7.50;;;3.90;99.90;;;3.51;100.00;97800.06;5022680;28;20504;-73
2023/03/29 06:15:04;;;;;;;14.07;6.60;;;4.10;99.90;;;3.78;100.00;97800.59;5022703;28;20041;-72
2023/03/29 06:17:32;;;;;;;14.73;8.23;;;4.30;99.90;;;3.76;100.00;97800.63;5019002;28;20049;-72
2023/03/29 06:20:00;;;;;;;13.15;8.02;;;4.30;99.90;;;3.96;100.00;97791.81;5019164;28;20046;-72
2023/03/29 06:22:27;;;;;;;12.43;7.95;;;4.40;99.90;;;4.03;100.00;97792.59;5023195;28;20385;-73
2023/03/29 06:24:54;;;;;;;18.00;11.10;;;4.50;99.90;;;4.16;100.00;97804.41;5020226;28;20431;-73
2023/03/29 06:27:22;;;;;;;21.23;11.38;;;4.70;99.90;;;4.51;100.00;97803.06;5017800;28;20592;-72
2023/03/29 06:29:49;;;;;;;15.18;7.95;;;4.80;99.90;;;4.67;100.00;97795.97;5024675;28;20045;-73
2023/03/29 06:32:16;;;;;;;21.90;11.13;;;5.00;99.90;;;4.79;100.00;97788.91;5024697;28;20051;-73
2023/03/29 06:34:43;;;;;;;14.18;7.68;;;5.10;99.90;;;4.78;100.00;97783.78;5010059;28;20081;-72
2023/03/29 06:37:10;;;;;;;16.23;7.63;;;5.30;99.90;;;5.13;100.00;97779.75;5025877;28;20046;-72
2023/03/29 06:39:41;;;;;;;15.10;7.18;;;5.40;99.90;;;5.27;100.00;97772.66;5022685;28;20072;-72
2023/03/29 06:42:08;;;;;;;16.70;6.25;;;5.50;99.90;;;5.35;100.00;97770.78;5022037;28;20051;-72
2023/03/29 06:44:48;;;;;;;14.95;7.18;;;5.60;99.90;;;5.50;100.00;97772.25;5022156;28;20061;-73
2023/03/29 06:47:18;;;;;;;13.13;5.80;;;5.70;99.90;;;5.69;100.00;97771.88;5023096;28;20144;-72
2023/03/29 06:49:45;;;;;;;10.40;4.88;;;5.90;99.90;;;5.77;100.00;97769.97;5021094;28;20041;-72
2023/03/29 06:52:12;;;;;;;9.15;4.78;;;6.00;99.90;;;5.92;100.00;97772.25;5020366;28;20042;-73
2023/03/29 06:54:40;;;;;;;9.20;4.60;;;6.10;99.90;;;5.91;100.00;97774.84;5020105;28;20053;-72
2023/03/29 06:57:07;;;;;;;6.45;3.75;;;6.20;99.90;;;6.08;100.00;97776.22;5022077;28;20166;-72
2023/03/29 06:59:34;;;;;;;10.70;3.58;;;6.30;99.90;;;5.91;100.00;97775.72;5020835;28;20103;-72
2023/03/29 07:02:01;;;;;;;7.88;3.30;;;6.40;99.90;;;5.99;100.00;97780.72;5021520;28;20173;-72
2023/03/29 07:04:30;;;;;;;5.97;2.67;;;6.50;99.90;;;6.18;100.00;97781.16;5020291;28;20092;-72
2023/03/29 07:07:00;;;;;;;7.88;3.15;;;6.50;99.90;;;6.39;100.00;97777.28;5022004;28;20038;-72
2023/03/29 07:09:29;;;;;;;8.55;3.47;;;6.60;99.90;;;6.46;100.00;97784.00;5022923;28;20076;-72
2023/03/29 07:11:57;;;;;;;5.10;2.75;;;6.60;99.90;;;6.67;100.00;97773.19;5022192;28;20056;-72
2023/03/29 07:14:28;;;;;;;7.78;3.80;;;6.70;99.90;;;6.66;100.00;97775.78;5024960;28;20045;-72
2023/03/29 07:16:57;;;;;;;10.85;3.45;;;6.80;99.90;;;6.74;100.00;97776.47;5020021;28;20061;-73
2023/03/29 07:19:27;;;;;;;6.50;3.47;;;6.90;99.90;;;6.79;100.00;97774.59;5020738;28;20058;-72
2023/03/29 07:21:55;;;;;;;8.45;3.08;;;7.00;99.90;;;6.84;100.00;97784.81;5022371;28;20073;-72
2023/03/29 07:24:22;;;;;;;10.90;4.57;;;7.10;99.90;;;6.96;100.00;97791.44;5025971;28;20104;-72
2023/03/29 07:26:51;;;;;;;9.95;3.60;;;7.20;99.90;;;7.02;100.00;97781.78;5022653;28;20054;-72
2023/03/29 07:29:30;;;;;;;5.10;3.05;;;7.20;99.90;;;7.02;100.00;97788.69;5016593;28;20250;-72
2023/03/29 07:31:57;;;;;;;9.52;4.63;;;7.30;99.90;;;7.07;100.00;97782.53;5018690;28;20050;-73
2023/03/29 07:34:25;;;;;;;7.82;4.32;;;7.50;99.90;;;7.23;100.00;97789.88;5019782;28;20054;-73
2023/03/29 07:36:53;;;;;;;6.22;2.90;;;7.60;99.90;;;7.43;100.00;97794.50;5023459;28;20054;-72
2023/03/29 07:39:21;;;;;;;9.25;3.60;;;7.70;99.90;;;7.10;100.00;97797.09;5023507;28;20425;-72
2023/03/29 07:41:48;;;;;;;8.82;3.67;;;7.70;99.90;;;7.33;100.00;97794.75;5018884;28;20423;-72
2023/03/29 07:44:18;;;;;;;6.40;3.40;;;7.80;99.90;;;7.33;100.00;97799.09;5022797;28;20049;-72
2023/03/29 07:46:45;;;;;;;6.22;3.70;;;7.90;99.90;;;7.41;100.00;97797.16;5024855;28;20595;-72
2023/03/29 07:49:15;;;;;;;6.72;2.83;;;7.80;99.90;;;7.16;100.00;97791.78;5022910;28;20411;-72
2023/03/29 07:51:48;;;;;;;7.95;2.83;;;7.80;99.90;;;7.24;100.00;97794.16;5026590;28;20045;-72
2023/03/29 07:54:15;;;;;;;7.90;2.85;;;7.80;99.90;;;7.19;100.00;97794.28;5010782;28;20053;-72
2023/03/29 07:56:42;;;;;;;7.93;3.92;;;7.90;99.90;;;7.39;100.00;97798.94;5010365;28;20069;-72
2023/03/29 07:59:09;;;;;;;7.50;3.60;;;7.80;99.90;;;7.56;100.00;97793.31;5023846;28;20049;-72
2023/03/29 08:01:41;;;;;;;6.93;3.60;;;7.90;99.90;;;7.45;100.00;97801.34;5025227;28;20524;-72
2023/03/29 08:04:09;;;;;;;11.35;4.07;;;8.00;99.90;;;7.62;100.00;97798.31;5029097;28;20143;-72
2023/03/29 08:06:36;;;;;;;8.48;3.58;;;8.00;99.90;;;7.65;100.00;97792.22;5027139;28;20077;-72
2023/03/29 08:09:03;;;;;;;7.03;2.60;;;8.10;99.90;;;7.90;100.00;97782.88;5022486;28;20052;-72
2023/03/29 08:11:30;;;;;;;5.88;2.55;;;8.30;99.90;;;8.03;100.00;97779.94;5026918;28;20057;-72
2023/03/29 08:13:58;;;;;;;6.18;2.65;;;8.40;99.90;;;8.09;100.00;97777.16;5020994;28;20586;-72
2023/03/29 08:16:25;;;;;;;8.02;2.50;;;8.60;99.90;;;8.13;100.00;97777.03;5024883;28;20068;-72
2023/03/29 08:18:52;;;;;;;6.55;2.35;;;8.70;99.90;;;8.69;100.00;97776.22;5022977;28;20151;-72
2023/03/29 08:21:19;;;;;;;5.68;2.45;;;8.90;99.90;;;8.91;100.00;97763.44;5023947;28;20057;-72
2023/03/29 08:23:47;;;;;;;5.32;2.10;;;9.20;99.90;;;9.22;100.00;97759.81;5023209;28;20046;-72
2023/03/29 08:26:14;;;;;;;4.30;2.10;;;9.60;99.90;;;9.24;100.00;97755.44;5025106;28;20049;-72
2023/03/29 08:28:42;;;;;;;6.00;2.13;;;9.70;99.90;;;9.23;100.00;97753.72;5022846;28;20125;-72
2023/03/29 08:31:10;;;;;;;6.50;2.47;;;9.70;99.90;;;9.05;100.00;97746.59;5025847;28;20048;-72
2023/03/29 08:33:37;;;;;;;6.28;2.33;;;9.50;99.90;;;9.72;100.00;97735.63;5027093;28;20783;-72
2023/03/29 08:36:05;;;;;;;4.97;2.15;;;9.90;99.90;;;9.49;100.00;97733.84;5026647;28;20045;-73
2023/03/29 08:38:32;;;;;;;5.60;2.00;;;10.10;99.90;;;10.27;100.00;97723.16;5021870;28;20056;-73
2023/03/29 08:41:00;;;;;;;6.20;2.35;;;10.60;99.90;;;9.96;100.00;97731.25;5024588;28;20045;-72
2023/03/29 08:43:37;;;;;;;5.40;2.05;;;10.70;99.90;;;10.32;100.00;97723.00;5021849;28;20063;-72
2023/03/29 08:46:26;;;;;;;8.73;2.78;;;10.50;99.90;;;10.30;100.00;97732.59;5025799;28;20076;-72
2023/03/29 08:49:05;;;;;;;6.72;2.38;;;10.40;99.90;;;10.38;100.00;97727.97;5027343;28;20049;-72
2023/03/29 08:51:43;;;;;;;5.07;2.58;;;10.50;99.90;;;10.30;100.00;97719.63;5024589;28;20137;-72
2023/03/29 08:54:23;;;;;;;4.80;2.22;;;10.70;99.90;;;10.24;100.00;97723.25;5020523;28;20052;-73
2023/03/29 08:56:56;;;;;;;5.50;2.40;;;10.90;99.90;;;10.21;100.00;97716.44;5036079;28;20060;-73
2023/03/29 08:59:29;;;;;;;4.75;2.78;;;11.00;99.90;;;10.60;100.00;97727.94;5021484;28;20060;-73
2023/03/29 09:01:59;;;;;;;6.50;2.65;;;10.80;99.90;;;10.59;100.00;97724.50;5022137;28;20039;-72
2023/03/29 09:04:38;;;;;;;6.75;3.15;;;10.80;99.90;;;10.83;100.00;97720.06;5024746;28;20416;-72
2023/03/29 09:07:10;;;;;;;6.00;2.50;;;10.90;99.90;;;10.58;100.00;97728.00;5024244;28;20050;-72
2023/03/29 09:09:37;;;;;;;7.13;3.00;;;10.80;99.90;;;10.64;100.00;97729.50;5037209;28;20053;-73
2023/03/29 09:12:22;;;;;;;7.22;2.88;;;10.80;99.90;;;10.40;100.00;97741.69;5025290;28;20600;-72
2023/03/29 09:15:43;;;;;;;5.53;2.90;;;10.80;99.90;;;10.43;100.00;97726.88;5024007;28;20129;-72
2023/03/29 09:18:24;;;;;;;6.32;2.85;;;10.70;99.90;;;10.71;100.00;97736.13;5024202;28;20593;-73
2023/03/29 09:21:24;;;;;;;5.80;2.63;;;10.90;99.90;;;11.13;100.00;97739.63;5034965;28;20056;-72
2023/03/29 09:24:09;;;;;;;4.38;2.47;;;11.30;99.90;;;11.51;100.00;97738.81;5031475;28;20057;-73
2023/03/29 09:26:51;;;;;;;6.75;2.83;;;11.40;99.90;;;10.89;100.00;97742.34;5022053;28;20053;-73
2023/03/29 09:30:03;;;;;;;6.07;2.55;;;11.50;99.90;;;11.19;100.00;97742.78;5022120;28;20148;-72
2023/03/29 09:32:43;;;;;;;6.20;2.95;;;11.30;99.90;;;11.24;100.00;97747.78;5015872;28;20049;-72
2023/03/29 09:35:21;;;;;;;5.95;2.88;;;11.20;99.90;;;11.19;100.00;97726.38;5020866;28;20132;-73
2023/03/29 09:37:51;;;;;;;5.47;2.65;;;11.30;99.90;;;11.25;100.00;97732.16;5033397;28;20056;-72
2023/03/29 09:40:38;;;;;;;5.47;2.53;;;11.50;99.90;;;11.71;100.00;97721.50;5019073;28;20089;-72
2023/03/29 09:43:11;;;;;;;5.05;2.63;;;12.00;99.90;;;11.41;100.00;97728.91;5037283;28;20053;-71
2023/03/29 09:45:40;;;;;;;7.88;2.67;;;12.00;99.90;;;11.85;100.00;97720.88;5018406;28;20049;-71
2023/03/29 09:48:16;;;;;;;7.90;2.63;;;12.00;99.90;;;12.04;100.00;97721.75;5023843;28;20053;-71
2023/03/29 09:50:46;;;;;;;6.45;2.88;;;12.20;99.90;;;12.09;100.00;97711.16;5019130;28;20056;-71
2023/03/29 09:53:15;;;;;;;5.03;2.58;;;12.30;99.90;;;12.72;100.00;97705.50;5037063;28;20042;-71
2023/03/29 09:55:44;;;;;;;5.47;2.80;;;12.70;99.90;;;11.90;100.00;97717.16;5020977;28;20045;-71
2023/03/29 09:58:22;;;;;;;5.93;2.53;;;12.40;99.90;;;12.30;100.00;97701.47;5019413;28;20128;-71
2023/03/29 10:00:50;;;;;;;5.25;2.22;;;12.10;99.90;;;12.42;100.00;97707.84;5038195;28;20091;-71
2023/03/29 10:03:29;;;;;;;7.18;3.80;;;12.40;99.90;;;12.96;100.00;97688.66;5024224;28;20041;-72
2023/03/29 10:05:59;;;;;;;4.57;2.63;;;12.70;99.90;;;13.21;100.00;97683.97;5036161;28;20511;-72
2023/03/29 10:08:41;;;;;;;6.50;2.72;;;13.00;99.90;;;12.80;100.00;97692.97;5023466;28;20069;-71
2023/03/29 10:11:28;;;;;;;5.35;2.30;;;13.70;99.90;;;12.72;100.00;97676.88;5039742;28;20491;-70
2023/03/29 10:14:17;;;;;;;6.43;2.90;;;13.20;99.90;;;13.05;100.00;97686.53;5021338;28;20041;-70
2023/03/29 10:16:46;;;;;;;5.95;2.90;;;13.30;99.90;;;13.49;100.00;97675.59;5032567;28;20054;-70
2023/03/29 10:19:34;;;;;;;5.15;2.42;;;13.80;99.90;;;14.75;100.00;97661.66;5023009;28;20045;-69
2023/03/29 10:22:15;;;;;;;7.07;2.78;;;14.70;99.90;;;14.65;100.00;97647.44;5021133;28;20162;-70
2023/03/29 10:24:50;;;;;;;7.13;3.03;;;14.50;99.90;;;15.29;100.00;97661.09;5022985;28;20053;-70
2023/03/29 10:27:28;;;;;;;5.70;2.63;;;15.30;99.90;;;14.78;100.00;97666.72;5022188;28;20147;-69
2023/03/29 10:29:58;;;;;;;5.53;2.35;;;15.40;99.90;;;14.85;100.00;97652.34;5018504;28;20049;-70
2023/03/29 10:32:38;;;;;;;5.13;2.28;;;14.80;99.90;;;14.61;100.00;97654.63;5038007;28;20075;-69
2023/03/29 10:35:18;;;;;;;6.32;3.08;;;14.50;99.90;;;14.67;100.00;97663.88;5037829;28;20112;-69
2023/03/29 10:37:50;;;;;;;9.35;2.83;;;14.30;99.90;;;13.99;100.00;97666.81;5022158;28;20053;-69
2023/03/29 10:40:30;;;;;;;4.60;2.22;;;14.00;99.90;;;13.30;100.00;97663.53;5035101;28;20396;-70
2023/03/29 10:43:13;;;;;;;4.95;2.58;;;13.60;99.90;;;12.92;100.00;97668.91;5021554;28;20048;-69
2023/03/29 10:45:41;;;;;;;4.40;2.40;;;13.40;99.90;;;13.47;100.00;97667.00;5019534;28;20049;-70